Conover, North Carolina
Current Conditions -  °F | °C
As of 6:53 AM on Monday 22 Dec 2014 (Local Time) from KHKY Reporting Station
Haze Haze  
Wind Chill: 34°   Ceiling: 600
Heat Index: 38°   Visibility: 4mi
Dew Point: 36°   Wind: 5mph
Humidity: 93%   Direction: 30°NNE
Pressure: 30.13"   Gusts: NA
Location:  35.71°N, 81.22°W
Report Text: KHKY 221153Z 03004KT 4SM BR BKN006 OVC010 03/02 A3013 RMK AO2 RAE35 CIG 004V008 SLP199 P0000 60001 70001 T00330022 10061 20033 53001
Loading
Personal Weather Stations






























Interactive Weather Map New forecast layout! Learn more

10-Day Weather Forecast

Advertisements
Track Severe Weather on mobile